createdAt,value
2019-03-15T00:01:50.633Z,62.54
2019-03-15T00:04:19.727Z,62.41
2019-03-15T00:06:49.063Z,63.10
2019-03-15T00:09:17.970Z,62.87
2019-03-15T00:11:46.740Z,62.71
2019-03-15T00:14:15.673Z,62.89
2019-03-15T00:16:44.420Z,63.04
2019-03-15T00:19:13.288Z,62.98
2019-03-15T00:21:42.181Z,63.11
2019-03-15T00:24:11.182Z,63.03
2019-03-15T00:26:40.205Z,62.88
2019-03-15T00:29:09.102Z,63.03
2019-03-15T00:31:37.979Z,63.20
2019-03-15T00:34:06.913Z,63.49
2019-03-15T00:36:35.869Z,63.42
2019-03-15T00:39:05.988Z,63.43
2019-03-15T00:41:34.945Z,63.89
2019-03-15T00:44:03.923Z,63.46
2019-03-15T00:46:32.731Z,63.83
2019-03-15T00:49:01.737Z,64.07
2019-03-15T00:51:30.585Z,64.30
2019-03-15T00:53:59.493Z,64.39
2019-03-15T00:56:28.284Z,64.22
2019-03-15T00:58:57.196Z,64.35
2019-03-15T01:01:26.155Z,64.09
2019-03-15T01:03:54.989Z,64.18
2019-03-15T01:06:23.792Z,63.84
2019-03-15T01:08:52.935Z,63.44
2019-03-15T01:11:21.908Z,63.51
2019-03-15T01:13:50.728Z,63.28
2019-03-15T01:16:19.660Z,63.54
2019-03-15T01:18:48.455Z,62.98
2019-03-15T01:21:17.452Z,62.99
2019-03-15T01:23:46.241Z,63.33
2019-03-15T01:26:15.246Z,63.25
2019-03-15T01:28:44.056Z,63.19
2019-03-15T01:31:12.933Z,63.08
2019-03-15T01:33:41.969Z,63.29
2019-03-15T01:36:10.801Z,63.25
2019-03-15T01:38:39.660Z,63.46
2019-03-15T01:41:08.591Z,63.71
2019-03-15T01:43:38.448Z,63.63
2019-03-15T01:46:08.421Z,63.83
2019-03-15T01:48:37.379Z,63.98
2019-03-15T01:51:06.394Z,63.94
2019-03-15T01:53:35.310Z,63.62
2019-03-15T01:56:04.604Z,63.82
2019-03-15T01:58:33.459Z,63.54
2019-03-15T02:01:02.335Z,63.74
2019-03-15T02:03:31.146Z,63.29
2019-03-15T02:06:00.139Z,63.70
2019-03-15T02:08:28.936Z,63.72
2019-03-15T02:10:57.827Z,63.61
2019-03-15T02:13:26.573Z,63.47
2019-03-15T02:15:55.569Z,63.98
2019-03-15T02:18:24.476Z,64.28
2019-03-15T02:20:53.400Z,64.50
2019-03-15T02:23:23.227Z,65.17
2019-03-15T02:25:53.377Z,65.51
2019-03-15T02:28:22.463Z,66.05
2019-03-15T02:30:51.452Z,66.48
2019-03-15T02:33:20.282Z,66.99
2019-03-15T02:35:49.174Z,67.08
2019-03-15T02:38:18.206Z,67.08
2019-03-15T02:40:47.080Z,67.50
2019-03-15T02:43:16.318Z,67.54
2019-03-15T02:45:45.125Z,67.55
2019-03-15T02:48:14.073Z,67.71
2019-03-15T02:50:43.250Z,67.87
2019-03-15T02:53:12.264Z,68.21
2019-03-15T02:55:41.210Z,68.35
2019-03-15T02:58:10.033Z,68.17
2019-03-15T03:00:38.799Z,67.89
2019-03-15T03:03:07.679Z,67.93
2019-03-15T03:05:36.589Z,67.67
2019-03-15T03:08:05.603Z,67.69
2019-03-15T03:10:34.523Z,67.68
2019-03-15T03:13:03.342Z,67.77
2019-03-15T03:15:32.256Z,67.74
2019-03-15T03:18:01.414Z,67.80
2019-03-15T03:20:31.220Z,67.65
2019-03-15T03:23:00.088Z,67.60
2019-03-15T03:25:28.969Z,67.40
2019-03-15T03:27:57.956Z,67.36
2019-03-15T03:30:26.810Z,67.46
2019-03-15T03:32:55.689Z,67.67
2019-03-15T03:35:24.549Z,67.85
2019-03-15T03:37:53.377Z,67.76
2019-03-15T03:40:22.191Z,68.00
2019-03-15T03:42:51.136Z,68.04
2019-03-15T03:45:23.174Z,68.36
2019-03-15T03:47:50.649Z,68.66
2019-03-15T03:50:19.593Z,68.68
2019-03-15T03:52:48.502Z,68.63
2019-03-15T03:55:17.427Z,68.84
2019-03-15T03:57:46.392Z,69.16
2019-03-15T04:00:15.649Z,69.09
2019-03-15T04:02:45.357Z,69.46
2019-03-15T04:05:14.289Z,69.89
2019-03-15T04:07:43.259Z,70.10
2019-03-15T04:10:12.246Z,70.12
2019-03-15T04:12:41.060Z,70.07
2019-03-15T04:15:10.172Z,69.35
2019-03-15T04:17:39.159Z,69.51
2019-03-15T04:20:08.533Z,69.30
2019-03-15T04:22:37.491Z,69.18
2019-03-15T04:25:07.379Z,69.12
2019-03-15T04:27:36.296Z,68.90
2019-03-15T04:30:08.479Z,69.08
2019-03-15T04:32:36.370Z,69.34
2019-03-15T04:35:05.670Z,69.38
2019-03-15T04:37:34.752Z,69.30
2019-03-15T04:40:04.053Z,69.42
2019-03-15T04:42:32.882Z,69.45
2019-03-15T04:45:01.745Z,69.49
2019-03-15T04:47:30.585Z,69.34
2019-03-15T04:49:59.498Z,69.21
2019-03-15T04:52:28.443Z,69.19
2019-03-15T04:54:57.414Z,69.15
2019-03-15T04:57:26.394Z,69.01
2019-03-15T04:59:55.209Z,69.06
2019-03-15T05:02:24.112Z,69.12
2019-03-15T05:04:53.077Z,69.19
2019-03-15T05:07:22.087Z,69.37
2019-03-15T05:09:50.980Z,69.51
2019-03-15T05:12:19.866Z,69.52
2019-03-15T05:14:48.819Z,69.91
2019-03-15T05:17:17.743Z,69.93
2019-03-15T05:19:46.624Z,70.33
2019-03-15T05:22:15.596Z,70.66
2019-03-15T05:24:44.448Z,70.93
2019-03-15T05:27:13.313Z,71.51
2019-03-15T05:29:42.285Z,71.90
2019-03-15T05:32:11.269Z,72.13
2019-03-15T05:34:40.031Z,72.64
2019-03-15T05:37:09.008Z,72.43
2019-03-15T05:39:37.860Z,73.72
2019-03-15T05:42:06.730Z,73.82
2019-03-15T05:44:35.535Z,74.27
2019-03-15T05:47:04.550Z,74.96
2019-03-15T05:49:33.526Z,75.26
2019-03-15T05:52:02.425Z,75.65
2019-03-15T05:54:31.352Z,76.23
2019-03-15T05:57:00.177Z,76.27
2019-03-15T05:59:29.023Z,76.54
2019-03-15T06:01:57.874Z,77.00
2019-03-15T06:04:26.832Z,76.88
2019-03-15T06:06:55.674Z,76.74
2019-03-15T06:09:24.528Z,77.65
2019-03-15T06:11:53.662Z,77.53
2019-03-15T06:14:22.564Z,77.30
2019-03-15T06:16:51.354Z,77.84
2019-03-15T06:19:20.252Z,78.20
2019-03-15T06:21:49.208Z,78.38
2019-03-15T06:24:18.242Z,78.89
2019-03-15T06:26:47.229Z,78.61
2019-03-15T06:29:16.161Z,79.14
2019-03-15T06:31:44.951Z,79.00
2019-03-15T06:34:13.956Z,79.00
2019-03-15T06:36:43.005Z,79.43
2019-03-15T06:39:12.305Z,79.64
2019-03-15T06:41:41.790Z,79.38
2019-03-15T06:44:11.043Z,79.72
2019-03-15T06:46:40.032Z,79.80
2019-03-15T06:49:11.508Z,79.43
2019-03-15T06:51:40.366Z,79.96
2019-03-15T06:54:11.805Z,79.49
2019-03-15T06:56:40.505Z,80.13
2019-03-15T06:59:09.622Z,80.08
2019-03-15T07:01:38.546Z,79.85
2019-03-15T07:04:08.306Z,80.27
2019-03-15T07:06:37.324Z,80.41
2019-03-15T07:09:07.621Z,80.59
2019-03-15T07:11:36.556Z,80.93
2019-03-15T07:14:05.640Z,81.07
2019-03-15T07:16:37.948Z,80.70
2019-03-15T07:19:05.353Z,80.75
2019-03-15T07:21:36.642Z,81.11
2019-03-15T07:24:05.752Z,81.32
2019-03-15T07:26:34.639Z,81.36
2019-03-15T07:29:03.846Z,81.31
2019-03-15T07:31:32.759Z,81.30
2019-03-15T07:34:01.684Z,81.59
2019-03-15T07:36:30.713Z,81.32
2019-03-15T07:38:59.617Z,81.31
2019-03-15T07:41:40.969Z,81.28
2019-03-15T07:44:09.942Z,80.94
2019-03-15T07:46:38.778Z,80.57
2019-03-15T07:49:07.699Z,80.36
2019-03-15T07:51:36.709Z,80.42
2019-03-15T07:54:05.683Z,80.58
2019-03-15T07:56:34.581Z,80.74
2019-03-15T07:59:03.439Z,81.09
2019-03-15T08:01:32.370Z,80.65
2019-03-15T08:04:01.364Z,80.43
2019-03-15T08:06:35.131Z,80.47
2019-03-15T08:09:01.059Z,80.36
2019-03-15T08:11:29.878Z,80.17
2019-03-15T08:13:58.806Z,79.74
2019-03-15T08:16:27.700Z,80.31
2019-03-15T08:18:56.524Z,79.82
2019-03-15T08:21:25.375Z,80.20
2019-03-15T08:23:54.307Z,80.38
2019-03-15T08:26:23.388Z,80.20
2019-03-15T08:28:52.175Z,80.45
2019-03-15T08:31:23.349Z,80.68
2019-03-15T08:33:51.906Z,80.63
2019-03-15T08:36:20.918Z,80.56
2019-03-15T08:38:50.744Z,80.79
2019-03-15T08:41:19.654Z,80.79
2019-03-15T08:43:48.639Z,81.12
2019-03-15T08:46:18.160Z,80.72
2019-03-15T08:48:47.038Z,80.11
2019-03-15T08:51:15.804Z,79.95
2019-03-15T08:53:44.894Z,80.28
2019-03-15T08:56:14.795Z,80.22
2019-03-15T08:58:43.693Z,79.33
2019-03-15T09:01:12.619Z,79.73
2019-03-15T09:03:41.504Z,79.16
2019-03-15T09:06:10.412Z,79.44
2019-03-15T09:08:39.373Z,79.00
2019-03-15T09:11:08.186Z,78.90
2019-03-15T09:13:37.230Z,78.75
2019-03-15T09:16:06.192Z,78.76
2019-03-15T09:18:35.113Z,78.62
2019-03-15T09:21:04.083Z,78.34
2019-03-15T09:23:33.005Z,78.80
2019-03-15T09:26:01.925Z,78.05
2019-03-15T09:28:31.012Z,78.83
2019-03-15T09:31:00.126Z,78.27
2019-03-15T09:33:29.106Z,78.34
2019-03-15T09:35:58.161Z,78.53
2019-03-15T09:38:27.195Z,78.59
2019-03-15T09:40:56.383Z,77.75
2019-03-15T09:43:25.345Z,78.64
2019-03-15T09:45:55.699Z,77.99
2019-03-15T09:48:24.910Z,77.85
2019-03-15T09:50:54.288Z,77.39
2019-03-15T09:53:23.276Z,77.41
2019-03-15T09:55:52.146Z,77.28
2019-03-15T09:58:20.956Z,77.53
2019-03-15T10:00:49.860Z,76.91
2019-03-15T10:03:22.353Z,77.28
2019-03-15T10:05:49.701Z,77.50
2019-03-15T10:08:18.496Z,77.12
2019-03-15T10:10:49.203Z,76.70
2019-03-15T10:13:18.016Z,76.83
2019-03-15T10:15:47.046Z,76.74
2019-03-15T10:18:16.207Z,76.96
2019-03-15T10:20:45.628Z,76.71
2019-03-15T10:23:14.635Z,77.05
2019-03-15T10:25:47.126Z,76.95
2019-03-15T10:28:15.668Z,76.60
2019-03-15T10:30:44.562Z,76.68
2019-03-15T10:33:13.519Z,76.18
2019-03-15T10:35:43.649Z,76.10
2019-03-15T10:38:12.556Z,75.84
2019-03-15T10:40:41.450Z,75.44
2019-03-15T10:43:10.577Z,76.18
2019-03-15T10:45:39.437Z,75.75
2019-03-15T10:48:08.493Z,74.93
2019-03-15T10:50:37.369Z,74.68
2019-03-15T10:53:06.399Z,74.30
2019-03-15T10:55:35.328Z,74.62
2019-03-15T10:58:04.217Z,74.58
2019-03-15T11:00:33.194Z,73.71
2019-03-15T11:03:02.055Z,73.33
2019-03-15T11:05:30.961Z,73.64
2019-03-15T11:07:59.964Z,72.94
2019-03-15T11:10:28.880Z,72.52
2019-03-15T11:12:57.780Z,71.54
2019-03-15T11:15:26.727Z,71.39
2019-03-15T11:17:55.584Z,70.95
2019-03-15T11:20:24.754Z,70.54
2019-03-15T11:22:53.748Z,70.49
2019-03-15T11:25:22.627Z,69.79
2019-03-15T11:27:51.574Z,69.66
2019-03-15T11:30:20.382Z,69.32
2019-03-15T11:32:49.476Z,69.32
2019-03-15T11:35:21.102Z,69.47
2019-03-15T11:37:49.273Z,69.66
2019-03-15T11:40:19.413Z,70.50
2019-03-15T11:42:48.579Z,71.92
2019-03-15T11:45:17.654Z,71.71
2019-03-15T11:48:02.929Z,71.60
2019-03-15T11:50:17.364Z,70.91
2019-03-15T11:52:46.484Z,70.45
2019-03-15T11:55:15.501Z,69.98
2019-03-15T11:57:44.455Z,70.03
2019-03-15T12:00:13.522Z,70.06
2019-03-15T12:02:42.495Z,69.43
2019-03-15T12:05:12.048Z,68.92
2019-03-15T12:07:41.063Z,68.88
2019-03-15T12:10:10.093Z,68.64
2019-03-15T12:12:39.092Z,68.92
2019-03-15T12:15:09.338Z,68.07
2019-03-15T12:17:38.277Z,67.84
2019-03-15T12:20:07.396Z,67.65
2019-03-15T12:22:36.300Z,67.88
2019-03-15T12:25:05.381Z,67.33
2019-03-15T12:27:34.356Z,67.02
2019-03-15T12:30:03.384Z,66.38
2019-03-15T12:32:32.255Z,66.32
2019-03-15T12:35:01.163Z,65.96
2019-03-15T12:37:30.101Z,65.32
2019-03-15T12:39:59.004Z,64.71
2019-03-15T12:42:28.328Z,64.83
2019-03-15T12:44:57.127Z,64.82
2019-03-15T12:47:26.151Z,65.18
2019-03-15T12:49:55.022Z,63.76
2019-03-15T12:52:23.917Z,64.07
2019-03-15T12:54:52.716Z,64.42
2019-03-15T12:57:21.518Z,64.33
2019-03-15T12:59:50.777Z,64.29
2019-03-15T13:02:20.472Z,64.41
2019-03-15T13:04:51.903Z,64.14
2019-03-15T13:07:20.208Z,64.49
2019-03-15T13:09:49.009Z,64.23
2019-03-15T13:12:18.028Z,62.54
2019-03-15T13:14:46.817Z,62.51
2019-03-15T13:17:15.835Z,62.51
2019-03-15T13:19:54.691Z,63.18
2019-03-15T13:22:15.497Z,62.91
2019-03-15T13:24:44.439Z,62.98
2019-03-15T13:27:13.331Z,62.97
2019-03-15T13:29:42.179Z,62.58
2019-03-15T13:32:11.141Z,62.06
2019-03-15T13:34:40.066Z,61.23
2019-03-15T13:37:09.229Z,61.11
2019-03-15T13:39:38.047Z,60.83
2019-03-15T13:42:07.053Z,60.84
2019-03-15T13:44:35.945Z,61.12
2019-03-15T13:47:04.953Z,60.95
2019-03-15T13:49:33.806Z,61.06
2019-03-15T13:52:02.809Z,61.10
2019-03-15T13:54:31.606Z,61.19
2019-03-15T13:57:00.524Z,60.98
2019-03-15T13:59:29.405Z,61.12
2019-03-15T14:01:58.442Z,61.78
2019-03-15T14:04:27.494Z,62.11
2019-03-15T14:06:59.349Z,62.77
2019-03-15T14:09:28.766Z,63.10
2019-03-15T14:11:57.744Z,63.29
2019-03-15T14:14:29.182Z,63.10
2019-03-15T14:16:58.329Z,63.01
2019-03-15T14:19:27.289Z,62.65
2019-03-15T14:21:56.301Z,62.31
2019-03-15T14:24:25.236Z,62.37
2019-03-15T14:26:54.138Z,62.25
2019-03-15T14:29:23.108Z,62.31
2019-03-15T14:31:51.933Z,62.19
2019-03-15T14:34:20.814Z,62.20
2019-03-15T14:36:49.753Z,62.17
2019-03-15T14:39:19.002Z,62.27
2019-03-15T14:41:48.411Z,62.53
2019-03-15T14:44:18.397Z,62.47
2019-03-15T14:46:47.815Z,62.09
2019-03-15T14:49:16.718Z,62.40
2019-03-15T14:51:45.618Z,62.61
2019-03-15T14:54:14.458Z,62.59
2019-03-15T14:56:43.289Z,63.07
2019-03-15T14:59:12.284Z,63.56
2019-03-15T15:01:41.294Z,63.49
2019-03-15T15:04:10.211Z,63.82
2019-03-15T15:06:39.067Z,64.12
2019-03-15T15:09:08.158Z,63.96
2019-03-15T15:11:36.964Z,64.03
2019-03-15T15:14:05.853Z,64.15
2019-03-15T15:16:34.791Z,64.10
2019-03-15T15:19:03.825Z,63.96
2019-03-15T15:21:32.609Z,64.09
2019-03-15T15:24:01.535Z,64.05
2019-03-15T15:26:30.337Z,64.05
2019-03-15T15:28:59.221Z,63.88
2019-03-15T15:31:28.193Z,64.06
2019-03-15T15:33:58.955Z,64.06
2019-03-15T15:36:28.526Z,64.31
2019-03-15T15:38:57.456Z,64.06
2019-03-15T15:41:26.346Z,63.98
2019-03-15T15:43:55.284Z,64.20
2019-03-15T15:46:24.197Z,64.36
2019-03-15T15:48:53.137Z,64.21
2019-03-15T15:51:22.126Z,64.59
2019-03-15T15:53:50.988Z,64.61
2019-03-15T15:56:20.037Z,64.42
2019-03-15T15:58:49.065Z,64.53
2019-03-15T16:01:17.930Z,64.56
2019-03-15T16:03:46.986Z,64.83
2019-03-15T16:06:15.960Z,64.91
2019-03-15T16:08:45.194Z,65.32
2019-03-15T16:11:14.219Z,65.49
2019-03-15T16:13:43.503Z,65.44
2019-03-15T16:16:12.333Z,65.10
2019-03-15T16:18:41.428Z,65.34
2019-03-15T16:21:10.591Z,65.86
2019-03-15T16:23:39.615Z,66.04
2019-03-15T16:26:08.594Z,66.12
2019-03-15T16:28:37.534Z,66.24
2019-03-15T16:31:06.609Z,66.10
2019-03-15T16:33:35.656Z,65.64
2019-03-15T16:36:04.612Z,65.64
2019-03-15T16:38:33.723Z,65.67
2019-03-15T16:41:02.688Z,65.83
2019-03-15T16:43:31.733Z,65.57
2019-03-15T16:46:00.794Z,65.83
2019-03-15T16:48:29.725Z,65.68
2019-03-15T16:50:58.882Z,65.79
2019-03-15T16:53:27.773Z,65.83
2019-03-15T16:55:56.813Z,65.93
2019-03-15T16:58:25.603Z,66.32
2019-03-15T17:00:54.553Z,65.95
2019-03-15T17:03:23.509Z,65.77
2019-03-15T17:05:52.518Z,65.72
2019-03-15T17:08:21.329Z,65.81
2019-03-15T17:10:50.216Z,66.31
2019-03-15T17:13:19.069Z,65.95
2019-03-15T17:15:47.902Z,65.81
2019-03-15T17:18:17.051Z,65.62
2019-03-15T17:20:45.993Z,65.73
2019-03-15T17:23:14.865Z,65.71
2019-03-15T17:25:43.797Z,65.13
2019-03-15T17:28:12.657Z,65.27
2019-03-15T17:30:41.989Z,65.26
2019-03-15T17:33:10.971Z,65.45
2019-03-15T17:35:39.920Z,65.38
2019-03-15T17:38:08.857Z,65.21
2019-03-15T17:40:37.744Z,65.49
2019-03-15T17:43:08.583Z,65.78
2019-03-15T17:45:37.524Z,65.45
2019-03-15T17:48:06.468Z,65.81
2019-03-15T17:50:35.359Z,66.21
2019-03-15T17:53:04.400Z,66.72
2019-03-15T17:55:33.433Z,67.01
2019-03-15T17:58:02.752Z,67.58
2019-03-15T18:00:38.737Z,67.92
2019-03-15T18:03:20.192Z,68.04
2019-03-15T18:05:38.893Z,68.14
2019-03-15T18:08:07.917Z,68.12
2019-03-15T18:10:36.907Z,68.23
2019-03-15T18:13:05.917Z,68.20
2019-03-15T18:15:34.839Z,68.05
2019-03-15T18:18:03.910Z,68.10
2019-03-15T18:20:32.870Z,68.47
2019-03-15T18:23:01.727Z,68.22
2019-03-15T18:25:31.559Z,68.37
2019-03-15T18:28:00.421Z,68.28
2019-03-15T18:30:30.248Z,68.94
2019-03-15T18:32:59.259Z,69.31
2019-03-15T18:35:33.746Z,69.48
2019-03-15T18:37:58.958Z,69.98
2019-03-15T18:40:31.878Z,70.21
2019-03-15T18:43:06.570Z,69.31
2019-03-15T18:45:35.615Z,70.04
2019-03-15T18:48:04.567Z,70.52
2019-03-15T18:50:33.570Z,70.74
2019-03-15T18:53:02.621Z,70.90
2019-03-15T18:55:31.629Z,71.40
2019-03-15T18:58:00.701Z,71.40
2019-03-15T19:00:29.688Z,71.86
2019-03-15T19:03:00.128Z,72.33
2019-03-15T19:05:29.212Z,72.33
2019-03-15T19:07:58.092Z,72.15
2019-03-15T19:10:27.017Z,71.73
2019-03-15T19:12:55.814Z,71.06
2019-03-15T19:15:24.696Z,70.60
2019-03-15T19:17:53.565Z,70.24
2019-03-15T19:20:22.577Z,70.18
2019-03-15T19:22:51.588Z,70.46
2019-03-15T19:25:20.484Z,70.57
2019-03-15T19:27:49.445Z,70.33
2019-03-15T19:30:18.671Z,70.21
2019-03-15T19:32:47.789Z,70.27
2019-03-15T19:35:16.701Z,69.87
2019-03-15T19:37:45.867Z,69.94
2019-03-15T19:40:14.847Z,69.68
2019-03-15T19:42:45.440Z,69.88
2019-03-15T19:45:14.611Z,70.05
2019-03-15T19:47:43.670Z,69.72
2019-03-15T19:50:13.871Z,69.52
2019-03-15T19:52:43.078Z,69.37
2019-03-15T19:55:12.883Z,69.12
2019-03-15T19:57:41.928Z,69.26
2019-03-15T20:00:13.104Z,68.87
2019-03-15T20:02:42.111Z,68.66
2019-03-15T20:05:11.145Z,68.69
2019-03-15T20:07:40.164Z,68.37
2019-03-15T20:10:10.403Z,67.89
2019-03-15T20:12:39.299Z,67.64
2019-03-15T20:15:08.852Z,67.90
2019-03-15T20:17:37.686Z,67.41
2019-03-15T20:20:07.483Z,67.63
2019-03-15T20:22:36.415Z,67.87
2019-03-15T20:25:05.916Z,67.49
2019-03-15T20:27:34.828Z,67.14
2019-03-15T20:30:03.999Z,67.33
2019-03-15T20:32:32.956Z,67.17
2019-03-15T20:35:02.007Z,66.79
2019-03-15T20:37:30.975Z,66.96
2019-03-15T20:39:59.916Z,66.74
2019-03-15T20:42:28.894Z,66.58
2019-03-15T20:44:57.788Z,66.05
2019-03-15T20:47:26.742Z,66.18
2019-03-15T20:49:55.665Z,66.21
2019-03-15T20:52:24.576Z,66.21
2019-03-15T20:54:53.521Z,66.27
2019-03-15T20:57:22.408Z,66.31
2019-03-15T20:59:51.402Z,66.43
2019-03-15T21:02:20.375Z,66.73
2019-03-15T21:04:49.324Z,66.95
2019-03-15T21:07:18.327Z,67.07
2019-03-15T21:09:47.499Z,67.19
2019-03-15T21:12:16.423Z,67.41
2019-03-15T21:14:45.382Z,67.36
2019-03-15T21:17:14.335Z,67.49
2019-03-15T21:19:43.246Z,67.61
2019-03-15T21:22:12.231Z,67.79
2019-03-15T21:24:41.049Z,67.64
2019-03-15T21:27:09.932Z,67.69
2019-03-15T21:29:38.799Z,67.76
2019-03-15T21:32:07.899Z,67.67
2019-03-15T21:34:36.909Z,67.65
2019-03-15T21:37:05.912Z,67.82
2019-03-15T21:39:34.810Z,67.61
2019-03-15T21:42:03.951Z,67.74
2019-03-15T21:44:32.838Z,67.54
2019-03-15T21:47:01.723Z,67.69
2019-03-15T21:49:30.975Z,67.63
2019-03-15T21:51:59.908Z,67.69
2019-03-15T21:54:28.692Z,67.53
2019-03-15T21:56:57.479Z,67.50
2019-03-15T21:59:26.457Z,67.59
2019-03-15T22:01:55.295Z,67.68
2019-03-15T22:04:24.265Z,67.75
2019-03-15T22:06:53.198Z,68.03
2019-03-15T22:09:22.087Z,68.09
2019-03-15T22:11:51.097Z,68.15
2019-03-15T22:14:19.954Z,68.25
2019-03-15T22:16:48.865Z,68.38
2019-03-15T22:19:17.755Z,68.57
2019-03-15T22:21:46.726Z,68.63
2019-03-15T22:24:15.640Z,68.94
2019-03-15T22:26:44.557Z,69.31
2019-03-15T22:29:13.348Z,69.59
2019-03-15T22:31:42.493Z,69.65
2019-03-15T22:34:11.416Z,69.83
2019-03-15T22:36:40.431Z,69.49
2019-03-15T22:39:09.400Z,69.54
2019-03-15T22:41:38.435Z,69.54
2019-03-15T22:44:07.494Z,69.87
2019-03-15T22:46:36.492Z,69.83
2019-03-15T22:49:05.703Z,70.11
2019-03-15T22:51:34.677Z,70.08
2019-03-15T22:54:03.569Z,70.47
2019-03-15T22:56:32.563Z,71.24
2019-03-15T22:59:01.455Z,71.69
2019-03-15T23:01:31.277Z,72.25
2019-03-15T23:04:00.196Z,72.41
2019-03-15T23:06:29.214Z,73.00
2019-03-15T23:08:58.000Z,73.20
2019-03-15T23:11:27.018Z,72.50
2019-03-15T23:13:56.129Z,72.32
2019-03-15T23:16:24.953Z,72.24
2019-03-15T23:18:53.735Z,72.05
2019-03-15T23:21:22.626Z,72.00
2019-03-15T23:23:51.591Z,71.72
2019-03-15T23:26:20.468Z,71.57
2019-03-15T23:28:49.362Z,71.21
2019-03-15T23:31:18.351Z,71.24
2019-03-15T23:33:47.161Z,71.14
2019-03-15T23:36:16.039Z,70.70
2019-03-15T23:38:45.393Z,70.93
2019-03-15T23:41:14.289Z,70.59
2019-03-15T23:43:43.173Z,70.30
2019-03-15T23:46:11.938Z,70.28
2019-03-15T23:48:40.887Z,69.98
2019-03-15T23:51:09.773Z,70.18
2019-03-15T23:53:38.654Z,70.21
2019-03-15T23:56:07.577Z,70.35
2019-03-15T23:58:36.468Z,70.19
